createdAt,value
2018-04-13T00:01:40.491Z,14.83
2018-04-13T00:03:41.928Z,14.78
2018-04-13T00:05:43.715Z,14.84
2018-04-13T00:07:45.371Z,15.01
2018-04-13T00:09:46.879Z,15.13
2018-04-13T00:11:48.599Z,15.23
2018-04-13T00:13:50.236Z,15.31
2018-04-13T00:15:52.388Z,15.20
2018-04-13T00:17:54.133Z,15.39
2018-04-13T00:19:55.589Z,15.26
2018-04-13T00:21:57.076Z,15.28
2018-04-13T00:23:59.218Z,15.03
2018-04-13T00:26:01.307Z,15.03
2018-04-13T00:28:02.882Z,15.21
2018-04-13T00:30:04.346Z,15.24
2018-04-13T00:32:05.827Z,15.21
2018-04-13T00:34:07.249Z,15.28
2018-04-13T00:36:08.671Z,15.21
2018-04-13T00:38:10.089Z,15.26
2018-04-13T00:40:11.507Z,15.33
2018-04-13T00:42:12.929Z,15.41
2018-04-13T00:44:14.829Z,15.31
2018-04-13T00:46:16.297Z,15.19
2018-04-13T00:48:17.720Z,15.19
2018-04-13T00:50:19.326Z,15.17
2018-04-13T00:52:20.739Z,15.06
2018-04-13T00:54:22.892Z,15.03
2018-04-13T00:56:24.512Z,14.94
2018-04-13T00:58:25.940Z,15.02
2018-04-13T01:00:27.839Z,14.75
2018-04-13T01:02:29.321Z,14.74
2018-04-13T01:04:30.739Z,14.60
2018-04-13T01:06:32.206Z,14.56
2018-04-13T01:08:33.630Z,14.68
2018-04-13T01:10:35.851Z,14.75
2018-04-13T01:12:37.346Z,14.78
2018-04-13T01:14:38.755Z,14.91
2018-04-13T01:16:40.172Z,14.88
2018-04-13T01:18:41.816Z,15.02
2018-04-13T01:20:43.272Z,15.03
2018-04-13T01:22:44.723Z,14.95
2018-04-13T01:24:47.028Z,15.01
2018-04-13T01:26:48.353Z,14.94
2018-04-13T01:28:50.050Z,14.94
2018-04-13T01:30:51.516Z,14.90
2018-04-13T01:32:52.930Z,14.75
2018-04-13T01:34:54.347Z,14.49
2018-04-13T01:36:55.764Z,14.32
2018-04-13T01:38:57.183Z,14.19
2018-04-13T01:40:58.598Z,14.04
2018-04-13T01:43:00.019Z,13.95
2018-04-13T01:45:01.437Z,13.81
2018-04-13T01:47:02.860Z,13.69
2018-04-13T01:49:04.276Z,13.76
2018-04-13T01:51:05.695Z,13.69
2018-04-13T01:53:07.120Z,13.65
2018-04-13T01:55:09.265Z,13.62
2018-04-13T01:57:11.272Z,13.55
2018-04-13T01:59:12.945Z,13.55
2018-04-13T02:01:14.550Z,13.56
2018-04-13T02:03:16.171Z,13.49
2018-04-13T02:05:18.435Z,13.71
2018-04-13T02:07:20.780Z,13.87
2018-04-13T02:09:22.160Z,13.95
2018-04-13T02:11:24.481Z,14.09
2018-04-13T02:13:25.964Z,14.24
2018-04-13T02:15:27.418Z,14.34
2018-04-13T02:17:28.838Z,14.42
2018-04-13T02:19:30.253Z,14.49
2018-04-13T02:21:31.673Z,14.50
2018-04-13T02:23:33.098Z,14.39
2018-04-13T02:25:35.052Z,14.56
2018-04-13T02:27:36.664Z,14.57
2018-04-13T02:29:38.087Z,14.53
2018-04-13T02:31:39.513Z,14.52
2018-04-13T02:33:40.969Z,14.53
2018-04-13T02:35:42.382Z,14.57
2018-04-13T02:37:44.260Z,14.54
2018-04-13T02:39:46.369Z,14.50
2018-04-13T02:41:48.004Z,14.43
2018-04-13T02:43:50.272Z,14.44
2018-04-13T02:45:51.938Z,14.46
2018-04-13T02:47:53.403Z,14.47
2018-04-13T02:49:54.828Z,14.19
2018-04-13T02:51:56.245Z,14.24
2018-04-13T02:53:57.653Z,14.19
2018-04-13T02:55:59.074Z,14.25
2018-04-13T02:58:00.498Z,14.35
2018-04-13T03:00:01.913Z,14.39
2018-04-13T03:02:04.146Z,14.38
2018-04-13T03:04:05.584Z,14.34
2018-04-13T03:06:07.021Z,14.32
2018-04-13T03:08:09.343Z,14.34
2018-04-13T03:10:10.814Z,14.29
2018-04-13T03:12:12.295Z,14.32
2018-04-13T03:14:13.714Z,14.35
2018-04-13T03:16:15.124Z,14.34
2018-04-13T03:18:16.547Z,14.31
2018-04-13T03:20:18.020Z,14.29
2018-04-13T03:22:20.409Z,14.31
2018-04-13T03:24:22.579Z,14.17
2018-04-13T03:26:24.095Z,14.21
2018-04-13T03:28:25.562Z,14.21
2018-04-13T03:30:27.672Z,14.14
2018-04-13T03:32:29.358Z,14.19
2018-04-13T03:34:31.008Z,14.21
2018-04-13T03:36:32.694Z,14.27
2018-04-13T03:38:34.470Z,14.21
2018-04-13T03:40:36.012Z,14.21
2018-04-13T03:42:37.500Z,14.24
2018-04-13T03:44:38.980Z,14.14
2018-04-13T03:46:40.480Z,14.16
2018-04-13T03:48:41.960Z,14.10
2018-04-13T03:50:43.410Z,14.07
2018-04-13T03:52:44.989Z,14.14
2018-04-13T03:54:47.191Z,14.16
2018-04-13T03:56:48.905Z,14.10
2018-04-13T03:58:51.042Z,14.10
2018-04-13T04:00:52.735Z,14.12
2018-04-13T04:02:54.385Z,14.01
2018-04-13T04:04:56.560Z,14.04
2018-04-13T04:06:58.176Z,13.95
2018-04-13T04:08:59.826Z,13.89
2018-04-13T04:11:01.421Z,13.94
2018-04-13T04:13:03.392Z,13.96
2018-04-13T04:15:04.988Z,13.94
2018-04-13T04:17:06.560Z,13.89
2018-04-13T04:19:08.659Z,13.91
2018-04-13T04:21:10.341Z,13.87
2018-04-13T04:23:12.084Z,13.77
2018-04-13T04:25:13.688Z,13.79
2018-04-13T04:27:15.835Z,13.74
2018-04-13T04:29:17.501Z,13.77
2018-04-13T04:31:19.028Z,13.70
2018-04-13T04:33:20.523Z,13.70
2018-04-13T04:35:21.956Z,13.67
2018-04-13T04:37:23.397Z,13.70
2018-04-13T04:39:25.344Z,13.61
2018-04-13T04:41:26.939Z,13.62
2018-04-13T04:43:28.407Z,13.69
2018-04-13T04:45:30.544Z,13.67
2018-04-13T04:47:32.639Z,13.73
2018-04-13T04:49:34.094Z,13.73
2018-04-13T04:51:35.507Z,13.69
2018-04-13T04:53:36.923Z,13.70
2018-04-13T04:55:38.344Z,13.71
2018-04-13T04:57:39.868Z,13.61
2018-04-13T04:59:41.863Z,13.63
2018-04-13T05:01:44.129Z,13.71
2018-04-13T05:03:45.625Z,13.67
2018-04-13T05:05:47.911Z,13.71
2018-04-13T05:07:50.117Z,13.71
2018-04-13T05:09:52.382Z,13.40
2018-04-13T05:11:54.066Z,13.40
2018-04-13T05:13:55.535Z,13.47
2018-04-13T05:15:57.778Z,13.49
2018-04-13T05:17:59.463Z,13.52
2018-04-13T05:20:01.012Z,13.58
2018-04-13T05:22:02.490Z,13.63
2018-04-13T05:24:03.958Z,13.71
2018-04-13T05:26:05.408Z,13.71
2018-04-13T05:28:07.371Z,13.77
2018-04-13T05:30:09.071Z,13.81
2018-04-13T05:32:10.717Z,13.88
2018-04-13T05:34:12.135Z,13.89
2018-04-13T05:36:13.781Z,14.01
2018-04-13T05:38:15.220Z,13.95
2018-04-13T05:40:16.667Z,14.02
2018-04-13T05:42:18.139Z,14.01
2018-04-13T05:44:19.635Z,13.96
2018-04-13T05:46:21.162Z,14.04
2018-04-13T05:48:22.611Z,14.12
2018-04-13T05:50:24.052Z,14.21
2018-04-13T05:52:25.688Z,14.24
2018-04-13T05:54:27.332Z,14.21
2018-04-13T05:56:29.054Z,14.17
2018-04-13T05:58:30.711Z,14.14
2018-04-13T06:00:32.209Z,14.06
2018-04-13T06:02:33.740Z,14.16
2018-04-13T06:04:35.201Z,14.20
2018-04-13T06:06:36.716Z,14.17
2018-04-13T06:08:38.183Z,14.10
2018-04-13T06:10:39.650Z,14.01
2018-04-13T06:12:41.119Z,14.10
2018-04-13T06:14:42.590Z,14.13
2018-04-13T06:16:44.002Z,14.25
2018-04-13T06:18:45.464Z,14.44
2018-04-13T06:20:46.948Z,14.56
2018-04-13T06:22:48.390Z,14.67
2018-04-13T06:24:49.813Z,14.69
2018-04-13T06:26:51.242Z,14.67
2018-04-13T06:28:52.661Z,14.57
2018-04-13T06:30:54.080Z,14.35
2018-04-13T06:32:55.506Z,14.29
2018-04-13T06:34:56.926Z,14.07
2018-04-13T06:36:58.353Z,13.99
2018-04-13T06:38:59.773Z,14.02
2018-04-13T06:41:01.199Z,14.12
2018-04-13T06:43:02.624Z,14.20
2018-04-13T06:45:04.045Z,14.20
2018-04-13T06:47:05.466Z,14.27
2018-04-13T06:49:06.896Z,14.02
2018-04-13T06:51:08.315Z,14.01
2018-04-13T06:53:09.743Z,13.96
2018-04-13T06:55:11.170Z,13.98
2018-04-13T06:57:12.604Z,14.04
2018-04-13T06:59:14.026Z,14.04
2018-04-13T07:01:15.479Z,13.95
2018-04-13T07:03:16.900Z,14.19
2018-04-13T07:05:18.319Z,14.24
2018-04-13T07:07:19.741Z,14.44
2018-04-13T07:09:21.185Z,14.44
2018-04-13T07:11:22.582Z,14.34
2018-04-13T07:13:24.011Z,14.37
2018-04-13T07:15:25.432Z,14.46
2018-04-13T07:17:26.862Z,14.61
2018-04-13T07:19:28.287Z,14.69
2018-04-13T07:21:29.714Z,14.83
2018-04-13T07:23:31.140Z,14.88
2018-04-13T07:25:32.572Z,14.84
2018-04-13T07:27:33.981Z,14.86
2018-04-13T07:29:35.417Z,15.03
2018-04-13T07:31:36.867Z,15.21
2018-04-13T07:33:38.634Z,15.21
2018-04-13T07:35:39.713Z,15.38
2018-04-13T07:37:41.155Z,15.48
2018-04-13T07:39:42.574Z,15.79
2018-04-13T07:41:44.000Z,16.00
2018-04-13T07:43:45.612Z,16.27
2018-04-13T07:45:46.853Z,16.81
2018-04-13T07:47:48.282Z,17.41
2018-04-13T07:49:49.723Z,17.54
2018-04-13T07:51:51.147Z,17.59
2018-04-13T07:53:52.579Z,17.69
2018-04-13T07:55:54.013Z,17.70
2018-04-13T07:57:55.436Z,17.47
2018-04-13T07:59:56.867Z,17.29
2018-04-13T08:01:58.294Z,17.38
2018-04-13T08:03:59.775Z,17.55
2018-04-13T08:06:01.197Z,17.78
2018-04-13T08:08:02.626Z,17.99
2018-04-13T08:10:04.289Z,17.85
2018-04-13T08:12:05.486Z,17.88
2018-04-13T08:14:06.914Z,17.89
2018-04-13T08:16:08.345Z,17.97
2018-04-13T08:18:09.768Z,18.03
2018-04-13T08:20:11.198Z,17.92
2018-04-13T08:22:12.624Z,17.78
2018-04-13T08:24:14.050Z,17.71
2018-04-13T08:26:15.489Z,17.78
2018-04-13T08:28:16.929Z,17.82
2018-04-13T08:30:18.379Z,17.71
2018-04-13T08:32:19.785Z,17.81
2018-04-13T08:34:21.212Z,17.81
2018-04-13T08:36:22.638Z,17.88
2018-04-13T08:38:24.061Z,17.88
2018-04-13T08:40:25.489Z,17.91
2018-04-13T08:42:26.919Z,18.02
2018-04-13T08:44:28.375Z,17.97
2018-04-13T08:46:30.082Z,17.97
2018-04-13T08:48:31.574Z,18.04
2018-04-13T08:50:33.002Z,18.12
2018-04-13T08:52:34.460Z,18.17
2018-04-13T08:54:35.859Z,18.21
2018-04-13T08:56:37.288Z,18.29
2018-04-13T08:58:38.726Z,18.39
2018-04-13T09:00:40.146Z,18.37
2018-04-13T09:02:41.629Z,18.31
2018-04-13T09:04:43.038Z,18.34
2018-04-13T09:06:44.483Z,18.43
2018-04-13T09:08:45.905Z,18.54
2018-04-13T09:10:47.341Z,18.49
2018-04-13T09:12:48.768Z,18.65
2018-04-13T09:14:50.196Z,18.58
2018-04-13T09:16:51.620Z,18.65
2018-04-13T09:18:53.053Z,18.57
2018-04-13T09:20:54.488Z,18.68
2018-04-13T09:22:55.986Z,18.72
2018-04-13T09:24:57.508Z,18.70
2018-04-13T09:26:58.917Z,18.68
2018-04-13T09:29:00.348Z,18.68
2018-04-13T09:31:01.775Z,18.70
2018-04-13T09:33:03.202Z,18.79
2018-04-13T09:35:04.645Z,18.82
2018-04-13T09:37:06.096Z,18.74
2018-04-13T09:39:07.517Z,18.59
2018-04-13T09:41:09.093Z,18.64
2018-04-13T09:43:10.520Z,18.61
2018-04-13T09:45:11.956Z,18.65
2018-04-13T09:47:13.424Z,18.76
2018-04-13T09:49:14.968Z,18.76
2018-04-13T09:51:16.404Z,18.68
2018-04-13T09:53:17.849Z,18.97
2018-04-13T09:55:19.405Z,19.17
2018-04-13T09:57:20.963Z,19.54
2018-04-13T09:59:22.445Z,19.75
2018-04-13T10:01:24.078Z,19.69
2018-04-13T10:03:25.599Z,19.72
2018-04-13T10:05:27.074Z,19.86
2018-04-13T10:07:28.561Z,20.03
2018-04-13T10:09:30.047Z,19.87
2018-04-13T10:11:31.498Z,19.53
2018-04-13T10:13:32.917Z,19.25
2018-04-13T10:15:34.358Z,19.08
2018-04-13T10:17:35.786Z,18.90
2018-04-13T10:19:37.216Z,18.80
2018-04-13T10:21:38.653Z,18.91
2018-04-13T10:23:40.070Z,19.11
2018-04-13T10:25:41.511Z,19.24
2018-04-13T10:27:42.948Z,19.42
2018-04-13T10:29:44.374Z,19.70
2018-04-13T10:31:45.814Z,19.84
2018-04-13T10:33:47.262Z,20.02
2018-04-13T10:35:48.689Z,20.08
2018-04-13T10:38:36.989Z,20.23
2018-04-13T10:40:39.613Z,20.31
2018-04-13T10:42:42.582Z,20.10
2018-04-13T10:44:45.040Z,20.13
2018-04-13T10:46:47.214Z,19.83
2018-04-13T10:49:36.545Z,19.72
2018-04-13T10:51:38.532Z,19.36
2018-04-13T10:53:40.558Z,19.15
2018-04-13T10:55:42.688Z,19.01
2018-04-13T10:57:44.492Z,19.21
2018-04-13T11:00:33.864Z,19.18
2018-04-13T11:02:36.472Z,19.01
2018-04-13T11:04:38.275Z,18.82
2018-04-13T11:06:40.347Z,18.82
2018-04-13T11:09:25.084Z,18.64
2018-04-13T11:11:27.544Z,18.58
2018-04-13T11:13:30.321Z,18.59
2018-04-13T11:15:33.029Z,18.61
2018-04-13T11:17:34.973Z,18.39
2018-04-13T11:19:36.754Z,18.33
2018-04-13T11:21:39.496Z,18.28
2018-04-13T11:23:41.173Z,18.43
2018-04-13T11:25:43.675Z,18.44
2018-04-13T11:28:28.489Z,18.36
2018-04-13T11:30:34.029Z,18.43
2018-04-13T11:32:36.022Z,18.40
2018-04-13T11:34:38.569Z,18.39
2018-04-13T11:36:41.370Z,18.42
2018-04-13T11:38:43.877Z,18.49
2018-04-13T11:40:45.628Z,18.27
2018-04-13T11:42:48.380Z,18.21
2018-04-13T11:44:50.055Z,18.34
2018-04-13T11:46:52.746Z,18.52
2018-04-13T11:49:36.602Z,18.43
2018-04-13T11:51:39.344Z,18.46
2018-04-13T11:53:41.335Z,18.21
2018-04-13T11:55:43.328Z,18.27
2018-04-13T11:57:45.515Z,18.21
2018-04-13T11:59:47.329Z,18.28
2018-04-13T12:01:49.138Z,18.34
2018-04-13T12:03:51.141Z,18.22
2018-04-13T12:06:37.299Z,18.04
2018-04-13T12:09:27.407Z,18.24
2018-04-13T12:11:29.061Z,18.19
2018-04-13T12:13:31.798Z,18.42
2018-04-13T12:15:34.509Z,18.18
2018-04-13T12:17:37.227Z,18.12
2018-04-13T12:19:40.042Z,17.99
2018-04-13T12:21:42.079Z,17.76
2018-04-13T12:23:44.850Z,17.74
2018-04-13T12:25:47.377Z,17.76
2018-04-13T12:27:50.059Z,17.76
2018-04-13T12:29:52.127Z,17.67
2018-04-13T12:31:54.055Z,17.69
2018-04-13T12:33:55.891Z,17.62
2018-04-13T12:35:58.680Z,17.57
2018-04-13T12:38:00.895Z,17.48
2018-04-13T12:40:02.669Z,17.50
2018-04-13T12:42:05.133Z,17.41
2018-04-13T12:44:07.305Z,17.36
2018-04-13T12:46:09.382Z,17.41
2018-04-13T12:48:11.217Z,17.33
2018-04-13T12:50:13.077Z,17.36
2018-04-13T12:52:15.444Z,17.41
2018-04-13T12:54:18.047Z,17.41
2018-04-13T12:56:20.760Z,17.32
2018-04-13T12:58:22.634Z,17.26
2018-04-13T13:00:25.223Z,17.20
2018-04-13T13:02:27.981Z,17.15
2018-04-13T13:05:16.243Z,17.17
2018-04-13T13:07:59.762Z,17.17
2018-04-13T13:10:04.708Z,17.11
2018-04-13T13:12:07.274Z,17.13
2018-04-13T13:14:09.282Z,17.08
2018-04-13T13:16:11.310Z,17.10
2018-04-13T13:18:13.913Z,16.96
2018-04-13T13:20:15.897Z,16.95
2018-04-13T13:22:18.805Z,16.96
2018-04-13T13:24:21.429Z,16.96
2018-04-13T13:27:05.148Z,17.00
2018-04-13T13:29:10.261Z,17.04
2018-04-13T13:31:12.195Z,17.08
2018-04-13T13:33:14.995Z,17.11
2018-04-13T13:35:17.336Z,17.23
2018-04-13T13:38:07.278Z,17.29
2018-04-13T13:40:09.608Z,17.38
2018-04-13T13:42:58.273Z,17.47
2018-04-13T13:45:00.399Z,17.53
2018-04-13T13:47:02.101Z,17.63
2018-04-13T13:49:04.788Z,17.55
2018-04-13T13:51:06.852Z,17.50
2018-04-13T13:54:34.608Z,17.48
2018-04-13T13:56:35.980Z,17.48
2018-04-13T13:58:38.616Z,17.54
2018-04-13T14:00:40.653Z,17.44
2018-04-13T14:02:42.705Z,17.40
2018-04-13T14:06:09.462Z,17.43
2018-04-13T14:08:11.339Z,17.44
2018-04-13T14:10:13.262Z,17.26
2018-04-13T14:12:16.095Z,17.32
2018-04-13T14:14:18.368Z,17.36
2018-04-13T14:16:20.713Z,17.25
2018-04-13T14:19:21.320Z,17.18
2018-04-13T14:22:11.428Z,17.29
2018-04-13T14:25:07.733Z,17.10
2018-04-13T14:27:57.296Z,17.13
2018-04-13T14:30:51.826Z,17.23
2018-04-13T14:33:40.343Z,17.17
2018-04-13T14:36:28.193Z,17.14
2018-04-13T19:05:15.541Z,16.00
2018-04-13T19:08:10.335Z,16.01
2018-04-13T19:11:06.090Z,16.01
2018-04-13T19:13:54.556Z,16.03
2018-04-13T19:16:45.917Z,16.00
2018-04-13T19:19:29.836Z,16.03
2018-04-13T19:22:43.108Z,15.97
2018-04-13T19:25:29.123Z,16.06
2018-04-13T19:28:41.204Z,16.00
2018-04-13T19:31:35.137Z,16.01
2018-04-13T19:34:22.612Z,16.03
2018-04-13T19:37:11.860Z,16.04
2018-04-13T19:39:58.900Z,15.85
2018-04-13T19:44:45.814Z,15.89
2018-04-13T19:47:33.934Z,15.93
2018-04-13T19:50:18.402Z,15.75
2018-04-13T19:53:03.973Z,15.76
2018-04-13T19:55:50.700Z,15.70
2018-04-13T19:58:36.562Z,15.70
2018-04-13T20:00:38.851Z,15.67
2018-04-13T20:03:23.125Z,15.75
2018-04-13T20:06:07.369Z,15.78
2018-04-13T20:08:53.471Z,15.79
2018-04-13T20:10:55.716Z,15.78
2018-04-13T20:13:42.650Z,15.67
2018-04-13T20:15:44.641Z,15.78
2018-04-13T20:17:46.725Z,15.67
2018-04-13T20:20:30.833Z,15.38
2018-04-13T20:23:17.725Z,15.33
2018-04-13T20:26:04.839Z,15.42
2018-04-13T20:28:51.068Z,15.38
2018-04-13T20:30:54.276Z,15.30
2018-04-13T20:33:40.595Z,15.27
2018-04-13T20:36:27.265Z,15.42
2018-04-13T20:39:11.445Z,15.28
2018-04-13T20:41:55.558Z,15.41
2018-04-13T20:44:41.738Z,15.51
2018-04-13T20:46:43.889Z,15.36
2018-04-13T20:48:45.839Z,15.31
2018-04-13T20:52:11.899Z,15.02
2018-04-13T20:54:57.109Z,14.83
2018-04-13T20:57:45.313Z,14.72
2018-04-13T21:00:29.549Z,14.83
2018-04-13T21:03:15.696Z,14.88
2018-04-13T21:06:01.868Z,14.98
2018-04-13T21:08:48.067Z,15.05
2018-04-13T21:10:50.391Z,15.17
2018-04-13T21:13:35.151Z,15.21
2018-04-13T21:16:19.475Z,15.21
2018-04-13T21:19:06.602Z,15.20
2018-04-13T21:21:52.179Z,15.17
2018-04-13T21:24:39.194Z,15.13
2018-04-13T21:27:25.467Z,14.71
2018-04-13T21:30:11.773Z,14.39
2018-04-13T21:32:59.059Z,14.38
2018-04-13T21:35:45.202Z,14.17
2018-04-13T21:38:32.296Z,14.10
2018-04-13T21:41:17.957Z,14.07
2018-04-13T21:44:03.737Z,14.21
2018-04-13T21:46:50.048Z,14.27
2018-04-13T21:49:36.313Z,14.28
2018-04-13T21:52:22.913Z,14.34
2018-04-13T21:55:07.120Z,14.53
2018-04-13T21:57:51.397Z,14.54
2018-04-13T22:00:37.716Z,14.74
2018-04-13T22:04:02.841Z,14.43
2018-04-13T22:06:48.626Z,14.34
2018-04-13T22:09:33.098Z,14.14
2018-04-13T22:12:17.468Z,13.98
2018-04-13T22:15:03.741Z,13.74
2018-04-13T22:17:05.917Z,13.58
2018-04-13T22:19:08.075Z,13.51
2018-04-13T22:21:54.476Z,13.44
2018-04-13T22:24:41.604Z,13.49
2018-04-13T22:26:43.564Z,13.44
2018-04-13T22:29:29.958Z,13.54
2018-04-13T22:32:16.264Z,13.59
2018-04-13T22:35:02.490Z,13.70
2018-04-13T22:37:04.716Z,13.73
2018-04-13T22:39:50.629Z,13.74
2018-04-13T22:42:36.884Z,13.73
2018-04-13T22:45:23.148Z,13.69
2018-04-13T22:48:09.590Z,13.61
2018-04-13T22:50:55.982Z,13.37
2018-04-13T22:53:40.313Z,13.49
2018-04-13T22:56:24.651Z,13.33
2018-04-13T22:59:11.040Z,13.25
2018-04-13T23:01:58.090Z,13.25
2018-04-13T23:04:44.205Z,13.14
2018-04-13T23:07:30.463Z,13.07
2018-04-13T23:09:32.729Z,12.96
2018-04-13T23:12:18.178Z,12.93
2018-04-13T23:15:02.633Z,13.02
2018-04-13T23:17:48.847Z,13.11
2018-04-13T23:20:35.328Z,13.02
2018-04-13T23:23:21.755Z,12.95
2018-04-13T23:26:06.135Z,12.97
2018-04-13T23:28:52.605Z,12.99
2018-04-13T23:31:38.943Z,13.04
2018-04-13T23:34:26.371Z,13.20
2018-04-13T23:37:12.369Z,13.38
2018-04-13T23:39:58.582Z,13.29
2018-04-13T23:42:42.836Z,13.33
2018-04-13T23:45:27.270Z,13.15
2018-04-13T23:48:13.396Z,12.97
2018-04-13T23:50:58.563Z,13.02
2018-04-13T23:53:45.476Z,12.95
2018-04-13T23:56:30.644Z,12.93
2018-04-13T23:59:17.438Z,12.89
